sensor_id;sensor_type;location;lat;lon;timestamp;P1;durP1;ratioP1;P2;durP2;ratioP2
12556;SDS011;6344;49.932;8.308;2023-04-08T00:00:20;14.57;;;12.20;;
12556;SDS011;6344;49.932;8.308;2023-04-08T00:02:47;11.50;;;10.50;;
12556;SDS011;6344;49.932;8.308;2023-04-08T00:05:13;13.90;;;12.57;;
12556;SDS011;6344;49.932;8.308;2023-04-08T00:07:40;13.10;;;11.90;;
12556;SDS011;6344;49.932;8.308;2023-04-08T00:10:07;12.13;;;11.02;;
12556;SDS011;6344;49.932;8.308;2023-04-08T00:12:34;13.33;;;12.20;;
12556;SDS011;6344;49.932;8.308;2023-04-08T00:15:03;13.53;;;12.27;;
12556;SDS011;6344;49.932;8.308;2023-04-08T00:17:31;12.50;;;11.20;;
12556;SDS011;6344;49.932;8.308;2023-04-08T00:19:58;13.40;;;12.20;;
12556;SDS011;6344;49.932;8.308;2023-04-08T00:22:24;13.33;;;12.10;;
12556;SDS011;6344;49.932;8.308;2023-04-08T00:24:51;13.33;;;12.13;;
12556;SDS011;6344;49.932;8.308;2023-04-08T00:27:17;13.03;;;11.83;;
12556;SDS011;6344;49.932;8.308;2023-04-08T00:29:44;14.77;;;13.47;;
12556;SDS011;6344;49.932;8.308;2023-04-08T00:32:12;13.40;;;12.00;;
12556;SDS011;6344;49.932;8.308;2023-04-08T00:34:39;15.50;;;13.00;;
12556;SDS011;6344;49.932;8.308;2023-04-08T00:37:06;14.40;;;13.00;;
12556;SDS011;6344;49.932;8.308;2023-04-08T00:39:32;14.53;;;13.03;;
12556;SDS011;6344;49.932;8.308;2023-04-08T00:41:59;14.00;;;12.50;;
12556;SDS011;6344;49.932;8.308;2023-04-08T00:44:26;16.03;;;14.20;;
12556;SDS011;6344;49.932;8.308;2023-04-08T00:46:53;17.87;;;14.77;;
12556;SDS011;6344;49.932;8.308;2023-04-08T00:49:21;14.67;;;12.67;;
12556;SDS011;6344;49.932;8.308;2023-04-08T00:51:48;16.43;;;14.40;;
12556;SDS011;6344;49.932;8.308;2023-04-08T00:54:14;14.63;;;12.47;;
12556;SDS011;6344;49.932;8.308;2023-04-08T00:56:41;15.43;;;13.87;;
12556;SDS011;6344;49.932;8.308;2023-04-08T00:59:09;15.80;;;14.10;;
12556;SDS011;6344;49.932;8.308;2023-04-08T01:01:38;15.93;;;14.20;;
12556;SDS011;6344;49.932;8.308;2023-04-08T01:04:12;16.53;;;14.10;;
12556;SDS011;6344;49.932;8.308;2023-04-08T01:06:53;15.73;;;14.10;;
12556;SDS011;6344;49.932;8.308;2023-04-08T01:09:27;18.10;;;15.90;;
12556;SDS011;6344;49.932;8.308;2023-04-08T01:11:58;17.20;;;15.23;;
12556;SDS011;6344;49.932;8.308;2023-04-08T01:14:29;21.17;;;16.00;;
12556;SDS011;6344;49.932;8.308;2023-04-08T01:16:59;18.30;;;14.23;;
12556;SDS011;6344;49.932;8.308;2023-04-08T01:19:28;16.17;;;14.23;;
12556;SDS011;6344;49.932;8.308;2023-04-08T01:22:00;18.47;;;15.40;;
12556;SDS011;6344;49.932;8.308;2023-04-08T01:24:35;16.57;;;14.50;;
12556;SDS011;6344;49.932;8.308;2023-04-08T01:27:06;21.07;;;14.97;;
12556;SDS011;6344;49.932;8.308;2023-04-08T01:29:34;18.53;;;15.07;;
12556;SDS011;6344;49.932;8.308;2023-04-08T01:32:01;18.70;;;15.87;;
12556;SDS011;6344;49.932;8.308;2023-04-08T01:34:29;18.30;;;14.70;;
12556;SDS011;6344;49.932;8.308;2023-04-08T01:36:57;21.42;;;15.02;;
12556;SDS011;6344;49.932;8.308;2023-04-08T01:39:25;17.37;;;15.47;;
12556;SDS011;6344;49.932;8.308;2023-04-08T01:41:53;18.60;;;15.30;;
12556;SDS011;6344;49.932;8.308;2023-04-08T01:44:22;17.70;;;15.10;;
12556;SDS011;6344;49.932;8.308;2023-04-08T01:46:51;19.80;;;16.33;;
12556;SDS011;6344;49.932;8.308;2023-04-08T01:49:19;19.77;;;16.30;;
12556;SDS011;6344;49.932;8.308;2023-04-08T01:51:47;21.33;;;16.38;;
12556;SDS011;6344;49.932;8.308;2023-04-08T01:54:14;21.10;;;15.63;;
12556;SDS011;6344;49.932;8.308;2023-04-08T01:56:41;19.47;;;16.37;;
12556;SDS011;6344;49.932;8.308;2023-04-08T01:59:11;19.05;;;16.98;;
12556;SDS011;6344;49.932;8.308;2023-04-08T02:01:42;17.20;;;14.13;;
12556;SDS011;6344;49.932;8.308;2023-04-08T02:04:10;19.55;;;15.88;;
12556;SDS011;6344;49.932;8.308;2023-04-08T02:06:38;18.50;;;14.70;;
12556;SDS011;6344;49.932;8.308;2023-04-08T02:09:05;17.77;;;14.47;;
12556;SDS011;6344;49.932;8.308;2023-04-08T02:11:32;16.90;;;14.53;;
12556;SDS011;6344;49.932;8.308;2023-04-08T02:13:59;25.02;;;16.17;;
12556;SDS011;6344;49.932;8.308;2023-04-08T02:16:28;18.60;;;15.40;;
12556;SDS011;6344;49.932;8.308;2023-04-08T02:19:04;19.63;;;14.40;;
12556;SDS011;6344;49.932;8.308;2023-04-08T02:21:35;18.17;;;16.23;;
12556;SDS011;6344;49.932;8.308;2023-04-08T02:24:07;19.33;;;14.50;;
12556;SDS011;6344;49.932;8.308;2023-04-08T02:26:37;20.53;;;15.30;;
12556;SDS011;6344;49.932;8.308;2023-04-08T02:29:06;19.13;;;14.80;;
12556;SDS011;6344;49.932;8.308;2023-04-08T02:31:37;16.80;;;14.43;;
12556;SDS011;6344;49.932;8.308;2023-04-08T02:34:07;19.13;;;15.40;;
12556;SDS011;6344;49.932;8.308;2023-04-08T02:36:35;19.58;;;15.23;;
12556;SDS011;6344;49.932;8.308;2023-04-08T02:39:03;16.57;;;14.57;;
12556;SDS011;6344;49.932;8.308;2023-04-08T02:41:30;16.73;;;14.57;;
12556;SDS011;6344;49.932;8.308;2023-04-08T02:43:56;17.65;;;13.95;;
12556;SDS011;6344;49.932;8.308;2023-04-08T02:46:23;16.67;;;14.10;;
12556;SDS011;6344;49.932;8.308;2023-04-08T02:48:50;18.07;;;14.60;;
12556;SDS011;6344;49.932;8.308;2023-04-08T02:51:18;16.10;;;13.15;;
12556;SDS011;6344;49.932;8.308;2023-04-08T02:53:45;17.80;;;15.73;;
12556;SDS011;6344;49.932;8.308;2023-04-08T02:56:11;17.90;;;14.80;;
12556;SDS011;6344;49.932;8.308;2023-04-08T02:58:38;22.00;;;16.87;;
12556;SDS011;6344;49.932;8.308;2023-04-08T03:01:04;17.27;;;15.10;;
12556;SDS011;6344;49.932;8.308;2023-04-08T03:03:32;21.20;;;15.80;;
12556;SDS011;6344;49.932;8.308;2023-04-08T03:05:59;21.33;;;15.43;;
12556;SDS011;6344;49.932;8.308;2023-04-08T03:08:27;18.63;;;15.03;;
12556;SDS011;6344;49.932;8.308;2023-04-08T03:10:54;19.50;;;14.93;;
12556;SDS011;6344;49.932;8.308;2023-04-08T03:13:20;19.33;;;14.90;;
12556;SDS011;6344;49.932;8.308;2023-04-08T03:15:47;20.27;;;15.00;;
12556;SDS011;6344;49.932;8.308;2023-04-08T03:18:14;19.37;;;14.23;;
12556;SDS011;6344;49.932;8.308;2023-04-08T03:20:41;22.33;;;15.93;;
12556;SDS011;6344;49.932;8.308;2023-04-08T03:23:08;18.30;;;15.30;;
12556;SDS011;6344;49.932;8.308;2023-04-08T03:25:36;19.57;;;15.50;;
12556;SDS011;6344;49.932;8.308;2023-04-08T03:28:03;21.03;;;16.10;;
12556;SDS011;6344;49.932;8.308;2023-04-08T03:30:30;19.10;;;15.25;;
12556;SDS011;6344;49.932;8.308;2023-04-08T03:32:56;21.40;;;17.10;;
12556;SDS011;6344;49.932;8.308;2023-04-08T03:35:23;20.80;;;16.20;;
12556;SDS011;6344;49.932;8.308;2023-04-08T03:37:50;20.15;;;16.75;;
12556;SDS011;6344;49.932;8.308;2023-04-08T03:40:16;20.77;;;16.00;;
12556;SDS011;6344;49.932;8.308;2023-04-08T03:42:45;23.63;;;17.80;;
12556;SDS011;6344;49.932;8.308;2023-04-08T03:45:11;26.87;;;16.53;;
12556;SDS011;6344;49.932;8.308;2023-04-08T03:47:38;20.80;;;15.90;;
12556;SDS011;6344;49.932;8.308;2023-04-08T03:50:06;22.30;;;16.00;;
12556;SDS011;6344;49.932;8.308;2023-04-08T03:52:33;28.10;;;18.80;;
12556;SDS011;6344;49.932;8.308;2023-04-08T03:55:00;24.50;;;18.55;;
12556;SDS011;6344;49.932;8.308;2023-04-08T03:57:26;24.20;;;17.13;;
12556;SDS011;6344;49.932;8.308;2023-04-08T03:59:54;24.73;;;17.60;;
12556;SDS011;6344;49.932;8.308;2023-04-08T04:02:21;29.55;;;17.90;;
12556;SDS011;6344;49.932;8.308;2023-04-08T04:04:48;25.00;;;17.10;;
12556;SDS011;6344;49.932;8.308;2023-04-08T04:07:15;21.30;;;16.00;;
12556;SDS011;6344;49.932;8.308;2023-04-08T04:09:41;27.73;;;17.73;;
12556;SDS011;6344;49.932;8.308;2023-04-08T04:12:08;22.97;;;15.90;;
12556;SDS011;6344;49.932;8.308;2023-04-08T04:14:35;23.60;;;16.87;;
12556;SDS011;6344;49.932;8.308;2023-04-08T04:17:03;24.33;;;17.30;;
12556;SDS011;6344;49.932;8.308;2023-04-08T04:19:29;23.63;;;16.50;;
12556;SDS011;6344;49.932;8.308;2023-04-08T04:21:56;28.23;;;17.67;;
12556;SDS011;6344;49.932;8.308;2023-04-08T04:24:23;24.50;;;16.80;;
12556;SDS011;6344;49.932;8.308;2023-04-08T04:26:49;22.23;;;17.13;;
12556;SDS011;6344;49.932;8.308;2023-04-08T04:29:16;29.70;;;16.97;;
12556;SDS011;6344;49.932;8.308;2023-04-08T04:31:43;25.53;;;16.30;;
12556;SDS011;6344;49.932;8.308;2023-04-08T04:34:11;21.83;;;17.20;;
12556;SDS011;6344;49.932;8.308;2023-04-08T04:36:38;23.57;;;17.40;;
12556;SDS011;6344;49.932;8.308;2023-04-08T04:39:04;24.43;;;18.07;;
12556;SDS011;6344;49.932;8.308;2023-04-08T04:41:31;25.80;;;17.08;;
12556;SDS011;6344;49.932;8.308;2023-04-08T04:43:59;23.03;;;18.50;;
12556;SDS011;6344;49.932;8.308;2023-04-08T04:46:26;26.88;;;17.42;;
12556;SDS011;6344;49.932;8.308;2023-04-08T04:48:52;22.60;;;16.10;;
12556;SDS011;6344;49.932;8.308;2023-04-08T04:51:20;26.77;;;17.67;;
12556;SDS011;6344;49.932;8.308;2023-04-08T04:53:47;26.33;;;18.10;;
12556;SDS011;6344;49.932;8.308;2023-04-08T04:56:14;26.77;;;18.50;;
12556;SDS011;6344;49.932;8.308;2023-04-08T04:58:41;21.73;;;16.40;;
12556;SDS011;6344;49.932;8.308;2023-04-08T05:01:07;24.87;;;16.10;;
12556;SDS011;6344;49.932;8.308;2023-04-08T05:03:34;26.87;;;18.43;;
12556;SDS011;6344;49.932;8.308;2023-04-08T05:06:01;28.13;;;18.90;;
12556;SDS011;6344;49.932;8.308;2023-04-08T05:08:29;28.97;;;20.77;;
12556;SDS011;6344;49.932;8.308;2023-04-08T05:10:55;30.63;;;19.67;;
12556;SDS011;6344;49.932;8.308;2023-04-08T05:13:25;32.13;;;21.00;;
12556;SDS011;6344;49.932;8.308;2023-04-08T05:15:52;34.17;;;20.93;;
12556;SDS011;6344;49.932;8.308;2023-04-08T05:18:19;28.60;;;18.30;;
12556;SDS011;6344;49.932;8.308;2023-04-08T05:20:45;24.10;;;17.47;;
12556;SDS011;6344;49.932;8.308;2023-04-08T05:23:12;27.53;;;18.77;;
12556;SDS011;6344;49.932;8.308;2023-04-08T05:25:40;28.73;;;20.87;;
12556;SDS011;6344;49.932;8.308;2023-04-08T05:28:06;36.27;;;23.50;;
12556;SDS011;6344;49.932;8.308;2023-04-08T05:30:33;37.30;;;22.40;;
12556;SDS011;6344;49.932;8.308;2023-04-08T05:33:00;32.90;;;20.20;;
12556;SDS011;6344;49.932;8.308;2023-04-08T05:35:27;34.88;;;20.95;;
12556;SDS011;6344;49.932;8.308;2023-04-08T05:37:53;32.00;;;22.77;;
12556;SDS011;6344;49.932;8.308;2023-04-08T05:40:20;29.80;;;21.93;;
12556;SDS011;6344;49.932;8.308;2023-04-08T05:42:48;31.47;;;21.67;;
12556;SDS011;6344;49.932;8.308;2023-04-08T05:45:15;31.40;;;20.30;;
12556;SDS011;6344;49.932;8.308;2023-04-08T05:47:41;36.17;;;24.80;;
12556;SDS011;6344;49.932;8.308;2023-04-08T05:50:08;32.70;;;22.27;;
12556;SDS011;6344;49.932;8.308;2023-04-08T05:52:36;32.40;;;22.70;;
12556;SDS011;6344;49.932;8.308;2023-04-08T05:55:03;34.50;;;24.23;;
12556;SDS011;6344;49.932;8.308;2023-04-08T05:57:31;29.60;;;22.23;;
12556;SDS011;6344;49.932;8.308;2023-04-08T05:59:59;32.63;;;23.80;;
12556;SDS011;6344;49.932;8.308;2023-04-08T06:02:25;31.70;;;22.17;;
12556;SDS011;6344;49.932;8.308;2023-04-08T06:04:52;32.60;;;25.27;;
12556;SDS011;6344;49.932;8.308;2023-04-08T06:07:19;34.23;;;23.87;;
12556;SDS011;6344;49.932;8.308;2023-04-08T06:09:45;31.17;;;25.03;;
12556;SDS011;6344;49.932;8.308;2023-04-08T06:12:12;29.33;;;23.13;;
12556;SDS011;6344;49.932;8.308;2023-04-08T06:14:39;26.97;;;23.67;;
12556;SDS011;6344;49.932;8.308;2023-04-08T06:17:06;35.00;;;24.87;;
12556;SDS011;6344;49.932;8.308;2023-04-08T06:19:33;28.70;;;23.90;;
12556;SDS011;6344;49.932;8.308;2023-04-08T06:22:00;30.50;;;24.30;;
12556;SDS011;6344;49.932;8.308;2023-04-08T06:24:26;31.03;;;24.20;;
12556;SDS011;6344;49.932;8.308;2023-04-08T06:26:54;27.50;;;23.67;;
12556;SDS011;6344;49.932;8.308;2023-04-08T06:29:21;23.80;;;21.20;;
12556;SDS011;6344;49.932;8.308;2023-04-08T06:31:48;25.80;;;21.90;;
12556;SDS011;6344;49.932;8.308;2023-04-08T06:34:16;23.87;;;21.37;;
12556;SDS011;6344;49.932;8.308;2023-04-08T06:36:42;22.98;;;19.80;;
12556;SDS011;6344;49.932;8.308;2023-04-08T06:39:09;24.60;;;20.70;;
12556;SDS011;6344;49.932;8.308;2023-04-08T06:41:36;29.00;;;21.17;;
12556;SDS011;6344;49.932;8.308;2023-04-08T06:44:02;22.17;;;19.90;;
12556;SDS011;6344;49.932;8.308;2023-04-08T06:46:29;27.23;;;22.50;;
12556;SDS011;6344;49.932;8.308;2023-04-08T06:48:56;29.43;;;19.60;;
12556;SDS011;6344;49.932;8.308;2023-04-08T06:51:24;26.50;;;20.83;;
12556;SDS011;6344;49.932;8.308;2023-04-08T06:53:51;24.85;;;20.85;;
12556;SDS011;6344;49.932;8.308;2023-04-08T06:56:18;24.53;;;20.73;;
12556;SDS011;6344;49.932;8.308;2023-04-08T06:58:46;24.10;;;18.93;;
12556;SDS011;6344;49.932;8.308;2023-04-08T07:01:13;23.03;;;20.03;;
12556;SDS011;6344;49.932;8.308;2023-04-08T07:03:40;21.10;;;19.00;;
12556;SDS011;6344;49.932;8.308;2023-04-08T07:06:07;22.97;;;19.20;;
12556;SDS011;6344;49.932;8.308;2023-04-08T07:08:35;20.70;;;18.60;;
12556;SDS011;6344;49.932;8.308;2023-04-08T07:11:01;23.40;;;20.27;;
12556;SDS011;6344;49.932;8.308;2023-04-08T07:13:28;22.70;;;19.17;;
12556;SDS011;6344;49.932;8.308;2023-04-08T07:15:54;21.00;;;18.80;;
12556;SDS011;6344;49.932;8.308;2023-04-08T07:18:21;21.43;;;18.63;;
12556;SDS011;6344;49.932;8.308;2023-04-08T07:20:49;23.45;;;20.98;;
12556;SDS011;6344;49.932;8.308;2023-04-08T07:23:17;22.23;;;20.03;;
12556;SDS011;6344;49.932;8.308;2023-04-08T07:25:44;20.90;;;18.10;;
12556;SDS011;6344;49.932;8.308;2023-04-08T07:28:11;21.00;;;18.90;;
12556;SDS011;6344;49.932;8.308;2023-04-08T07:30:38;21.20;;;19.10;;
12556;SDS011;6344;49.932;8.308;2023-04-08T07:33:05;18.17;;;16.33;;
12556;SDS011;6344;49.932;8.308;2023-04-08T07:35:32;21.20;;;19.00;;
12556;SDS011;6344;49.932;8.308;2023-04-08T07:37:59;22.00;;;19.73;;
12556;SDS011;6344;49.932;8.308;2023-04-08T07:40:25;20.40;;;18.50;;
12556;SDS011;6344;49.932;8.308;2023-04-08T07:42:53;18.03;;;16.33;;
12556;SDS011;6344;49.932;8.308;2023-04-08T07:45:20;19.17;;;17.27;;
12556;SDS011;6344;49.932;8.308;2023-04-08T07:47:47;20.67;;;18.50;;
12556;SDS011;6344;49.932;8.308;2023-04-08T07:50:13;21.83;;;19.73;;
12556;SDS011;6344;49.932;8.308;2023-04-08T07:52:40;21.03;;;18.90;;
12556;SDS011;6344;49.932;8.308;2023-04-08T07:55:07;18.30;;;16.50;;
12556;SDS011;6344;49.932;8.308;2023-04-08T07:57:34;20.30;;;18.20;;
12556;SDS011;6344;49.932;8.308;2023-04-08T08:00:02;20.13;;;18.30;;
12556;SDS011;6344;49.932;8.308;2023-04-08T08:02:29;21.02;;;18.85;;
12556;SDS011;6344;49.932;8.308;2023-04-08T08:04:56;19.83;;;18.00;;
12556;SDS011;6344;49.932;8.308;2023-04-08T08:07:22;18.98;;;17.38;;
12556;SDS011;6344;49.932;8.308;2023-04-08T08:09:49;17.80;;;16.10;;
12556;SDS011;6344;49.932;8.308;2023-04-08T08:12:16;19.30;;;17.53;;
12556;SDS011;6344;49.932;8.308;2023-04-08T08:14:42;18.27;;;16.47;;
12556;SDS011;6344;49.932;8.308;2023-04-08T08:17:10;21.43;;;19.43;;
12556;SDS011;6344;49.932;8.308;2023-04-08T08:19:37;21.43;;;19.23;;
12556;SDS011;6344;49.932;8.308;2023-04-08T08:22:03;20.53;;;18.60;;
12556;SDS011;6344;49.932;8.308;2023-04-08T08:24:30;19.93;;;18.03;;
12556;SDS011;6344;49.932;8.308;2023-04-08T08:26:57;18.23;;;16.52;;
12556;SDS011;6344;49.932;8.308;2023-04-08T08:29:23;19.07;;;17.17;;
12556;SDS011;6344;49.932;8.308;2023-04-08T08:31:50;20.67;;;18.67;;
12556;SDS011;6344;49.932;8.308;2023-04-08T08:34:18;19.27;;;17.37;;
12556;SDS011;6344;49.932;8.308;2023-04-08T08:36:45;22.30;;;20.10;;
12556;SDS011;6344;49.932;8.308;2023-04-08T08:39:11;21.35;;;19.45;;
12556;SDS011;6344;49.932;8.308;2023-04-08T08:41:38;21.40;;;19.48;;
12556;SDS011;6344;49.932;8.308;2023-04-08T08:44:06;17.47;;;15.67;;
12556;SDS011;6344;49.932;8.308;2023-04-08T08:46:33;21.00;;;19.03;;
12556;SDS011;6344;49.932;8.308;2023-04-08T08:49:00;18.57;;;16.67;;
12556;SDS011;6344;49.932;8.308;2023-04-08T08:51:28;17.13;;;15.43;;
12556;SDS011;6344;49.932;8.308;2023-04-08T08:53:56;19.30;;;17.60;;
12556;SDS011;6344;49.932;8.308;2023-04-08T08:56:26;21.13;;;18.87;;
12556;SDS011;6344;49.932;8.308;2023-04-08T08:58:53;19.73;;;17.83;;
12556;SDS011;6344;49.932;8.308;2023-04-08T09:01:29;20.10;;;18.10;;
12556;SDS011;6344;49.932;8.308;2023-04-08T09:04:11;20.60;;;18.70;;
12556;SDS011;6344;49.932;8.308;2023-04-08T09:06:41;21.47;;;19.40;;
12556;SDS011;6344;49.932;8.308;2023-04-08T09:09:09;21.13;;;18.90;;
12556;SDS011;6344;49.932;8.308;2023-04-08T09:11:36;22.50;;;20.30;;
12556;SDS011;6344;49.932;8.308;2023-04-08T09:14:04;19.60;;;17.55;;
12556;SDS011;6344;49.932;8.308;2023-04-08T09:16:31;20.30;;;18.20;;
12556;SDS011;6344;49.932;8.308;2023-04-08T09:19:06;22.13;;;20.07;;
12556;SDS011;6344;49.932;8.308;2023-04-08T09:21:35;21.37;;;19.47;;
12556;SDS011;6344;49.932;8.308;2023-04-08T09:24:04;19.87;;;17.77;;
12556;SDS011;6344;49.932;8.308;2023-04-08T09:26:30;21.00;;;19.10;;
12556;SDS011;6344;49.932;8.308;2023-04-08T09:28:58;22.08;;;20.08;;
12556;SDS011;6344;49.932;8.308;2023-04-08T09:31:26;23.53;;;20.63;;
12556;SDS011;6344;49.932;8.308;2023-04-08T09:33:54;19.80;;;17.87;;
12556;SDS011;6344;49.932;8.308;2023-04-08T09:36:22;20.43;;;18.23;;
12556;SDS011;6344;49.932;8.308;2023-04-08T09:38:50;20.30;;;18.40;;
12556;SDS011;6344;49.932;8.308;2023-04-08T09:41:18;19.60;;;17.25;;
12556;SDS011;6344;49.932;8.308;2023-04-08T09:43:47;20.93;;;18.83;;
12556;SDS011;6344;49.932;8.308;2023-04-08T09:46:16;20.97;;;18.70;;
12556;SDS011;6344;49.932;8.308;2023-04-08T09:48:52;20.83;;;18.58;;
12556;SDS011;6344;49.932;8.308;2023-04-08T09:51:22;19.73;;;17.73;;
12556;SDS011;6344;49.932;8.308;2023-04-08T09:53:53;18.73;;;16.87;;
12556;SDS011;6344;49.932;8.308;2023-04-08T09:56:25;20.20;;;18.27;;
12556;SDS011;6344;49.932;8.308;2023-04-08T09:58:57;18.80;;;17.00;;
12556;SDS011;6344;49.932;8.308;2023-04-08T10:01:25;22.65;;;20.02;;
12556;SDS011;6344;49.932;8.308;2023-04-08T10:03:57;22.00;;;19.90;;
12556;SDS011;6344;49.932;8.308;2023-04-08T10:06:26;19.40;;;17.10;;
12556;SDS011;6344;49.932;8.308;2023-04-08T10:08:55;21.47;;;19.50;;
12556;SDS011;6344;49.932;8.308;2023-04-08T10:11:22;19.93;;;18.00;;
12556;SDS011;6344;49.932;8.308;2023-04-08T10:13:50;18.93;;;17.13;;
12556;SDS011;6344;49.932;8.308;2023-04-08T10:16:18;20.20;;;18.10;;
12556;SDS011;6344;49.932;8.308;2023-04-08T10:18:47;23.90;;;18.90;;
12556;SDS011;6344;49.932;8.308;2023-04-08T10:21:35;20.63;;;18.83;;
12556;SDS011;6344;49.932;8.308;2023-04-08T10:24:07;19.57;;;17.70;;
12556;SDS011;6344;49.932;8.308;2023-04-08T10:26:35;20.13;;;18.23;;
12556;SDS011;6344;49.932;8.308;2023-04-08T10:32:08;18.47;;;16.80;;
12556;SDS011;6344;49.932;8.308;2023-04-08T10:34:52;18.10;;;16.50;;
12556;SDS011;6344;49.932;8.308;2023-04-08T10:37:19;19.20;;;17.60;;
12556;SDS011;6344;49.932;8.308;2023-04-08T10:39:47;19.17;;;17.47;;
12556;SDS011;6344;49.932;8.308;2023-04-08T10:42:15;17.90;;;16.30;;
12556;SDS011;6344;49.932;8.308;2023-04-08T10:44:43;18.90;;;17.20;;
12556;SDS011;6344;49.932;8.308;2023-04-08T10:47:12;17.27;;;15.77;;
12556;SDS011;6344;49.932;8.308;2023-04-08T10:49:39;15.60;;;14.13;;
12556;SDS011;6344;49.932;8.308;2023-04-08T10:52:06;17.13;;;15.60;;
12556;SDS011;6344;49.932;8.308;2023-04-08T10:54:33;17.40;;;15.90;;
12556;SDS011;6344;49.932;8.308;2023-04-08T10:57:01;16.27;;;14.87;;
12556;SDS011;6344;49.932;8.308;2023-04-08T10:59:28;17.10;;;15.50;;
12556;SDS011;6344;49.932;8.308;2023-04-08T11:01:56;11.80;;;10.73;;
12556;SDS011;6344;49.932;8.308;2023-04-08T11:04:25;11.83;;;10.80;;
12556;SDS011;6344;49.932;8.308;2023-04-08T11:06:51;12.60;;;11.40;;
12556;SDS011;6344;49.932;8.308;2023-04-08T11:09:18;21.57;;;11.90;;
12556;SDS011;6344;49.932;8.308;2023-04-08T11:11:45;14.47;;;12.67;;
12556;SDS011;6344;49.932;8.308;2023-04-08T11:14:12;13.03;;;11.80;;
12556;SDS011;6344;49.932;8.308;2023-04-08T11:16:41;12.50;;;11.50;;
12556;SDS011;6344;49.932;8.308;2023-04-08T11:19:07;13.30;;;12.17;;
12556;SDS011;6344;49.932;8.308;2023-04-08T11:21:36;9.80;;;8.80;;
12556;SDS011;6344;49.932;8.308;2023-04-08T11:24:07;13.50;;;12.30;;
12556;SDS011;6344;49.932;8.308;2023-04-08T11:26:36;10.93;;;9.93;;
12556;SDS011;6344;49.932;8.308;2023-04-08T11:29:03;11.60;;;10.60;;
12556;SDS011;6344;49.932;8.308;2023-04-08T11:31:31;8.07;;;7.28;;
12556;SDS011;6344;49.932;8.308;2023-04-08T11:33:58;13.73;;;10.30;;
12556;SDS011;6344;49.932;8.308;2023-04-08T11:36:27;9.40;;;8.65;;
12556;SDS011;6344;49.932;8.308;2023-04-08T11:38:55;11.00;;;10.07;;
12556;SDS011;6344;49.932;8.308;2023-04-08T11:41:22;12.47;;;11.27;;
12556;SDS011;6344;49.932;8.308;2023-04-08T11:43:52;11.73;;;10.60;;
12556;SDS011;6344;49.932;8.308;2023-04-08T11:46:19;10.67;;;9.77;;
12556;SDS011;6344;49.932;8.308;2023-04-08T11:48:56;10.52;;;9.57;;
12556;SDS011;6344;49.932;8.308;2023-04-08T11:51:23;10.13;;;9.33;;
12556;SDS011;6344;49.932;8.308;2023-04-08T11:53:51;7.70;;;6.70;;
12556;SDS011;6344;49.932;8.308;2023-04-08T11:56:19;11.37;;;10.47;;
12556;SDS011;6344;49.932;8.308;2023-04-08T11:58:47;12.13;;;11.13;;
12556;SDS011;6344;49.932;8.308;2023-04-08T12:01:14;11.03;;;9.97;;
12556;SDS011;6344;49.932;8.308;2023-04-08T12:03:52;11.60;;;9.90;;
12556;SDS011;6344;49.932;8.308;2023-04-08T12:06:23;12.73;;;11.73;;
12556;SDS011;6344;49.932;8.308;2023-04-08T12:08:51;11.73;;;10.83;;
12556;SDS011;6344;49.932;8.308;2023-04-08T12:11:19;9.90;;;9.10;;
12556;SDS011;6344;49.932;8.308;2023-04-08T12:13:46;11.40;;;10.27;;
12556;SDS011;6344;49.932;8.308;2023-04-08T12:16:14;12.10;;;11.20;;
12556;SDS011;6344;49.932;8.308;2023-04-08T12:18:41;11.10;;;10.00;;
12556;SDS011;6344;49.932;8.308;2023-04-08T12:21:08;10.33;;;9.53;;
12556;SDS011;6344;49.932;8.308;2023-04-08T12:23:36;10.60;;;9.80;;
12556;SDS011;6344;49.932;8.308;2023-04-08T12:26:02;10.73;;;9.60;;
12556;SDS011;6344;49.932;8.308;2023-04-08T12:28:30;13.50;;;12.47;;
12556;SDS011;6344;49.932;8.308;2023-04-08T12:30:58;12.17;;;11.10;;
12556;SDS011;6344;49.932;8.308;2023-04-08T12:33:25;12.13;;;11.15;;
12556;SDS011;6344;49.932;8.308;2023-04-08T12:35:52;12.37;;;11.37;;
12556;SDS011;6344;49.932;8.308;2023-04-08T12:38:19;12.43;;;11.43;;
12556;SDS011;6344;49.932;8.308;2023-04-08T12:40:45;13.07;;;12.03;;
12556;SDS011;6344;49.932;8.308;2023-04-08T12:43:12;10.80;;;10.00;;
12556;SDS011;6344;49.932;8.308;2023-04-08T12:45:40;11.77;;;10.57;;
12556;SDS011;6344;49.932;8.308;2023-04-08T12:48:07;12.27;;;11.30;;
12556;SDS011;6344;49.932;8.308;2023-04-08T12:50:34;7.67;;;6.97;;
12556;SDS011;6344;49.932;8.308;2023-04-08T12:53:00;8.40;;;7.67;;
12556;SDS011;6344;49.932;8.308;2023-04-08T12:55:27;11.10;;;9.93;;
12556;SDS011;6344;49.932;8.308;2023-04-08T12:57:54;8.10;;;7.30;;
12556;SDS011;6344;49.932;8.308;2023-04-08T13:00:20;10.70;;;9.80;;
12556;SDS011;6344;49.932;8.308;2023-04-08T13:02:48;9.17;;;8.37;;
12556;SDS011;6344;49.932;8.308;2023-04-08T13:05:15;9.87;;;9.07;;
12556;SDS011;6344;49.932;8.308;2023-04-08T13:07:42;8.02;;;7.38;;
12556;SDS011;6344;49.932;8.308;2023-04-08T13:10:08;10.90;;;9.93;;
12556;SDS011;6344;49.932;8.308;2023-04-08T13:12:35;8.88;;;7.97;;
12556;SDS011;6344;49.932;8.308;2023-04-08T13:15:04;10.67;;;9.73;;
12556;SDS011;6344;49.932;8.308;2023-04-08T13:17:32;9.40;;;8.50;;
12556;SDS011;6344;49.932;8.308;2023-04-08T13:20:00;11.47;;;10.57;;
12556;SDS011;6344;49.932;8.308;2023-04-08T13:22:27;10.57;;;9.73;;
12556;SDS011;6344;49.932;8.308;2023-04-08T13:24:53;9.03;;;8.23;;
12556;SDS011;6344;49.932;8.308;2023-04-08T13:27:20;9.17;;;8.37;;
12556;SDS011;6344;49.932;8.308;2023-04-08T13:29:47;9.90;;;9.07;;
12556;SDS011;6344;49.932;8.308;2023-04-08T13:32:14;10.10;;;8.07;;
12556;SDS011;6344;49.932;8.308;2023-04-08T13:34:40;9.37;;;8.57;;
12556;SDS011;6344;49.932;8.308;2023-04-08T13:37:09;8.93;;;8.23;;
12556;SDS011;6344;49.932;8.308;2023-04-08T13:39:35;8.77;;;8.07;;
12556;SDS011;6344;49.932;8.308;2023-04-08T13:42:02;7.60;;;7.00;;
12556;SDS011;6344;49.932;8.308;2023-04-08T13:44:29;8.87;;;8.13;;
12556;SDS011;6344;49.932;8.308;2023-04-08T13:46:57;9.10;;;8.33;;
12556;SDS011;6344;49.932;8.308;2023-04-08T13:49:23;9.80;;;9.00;;
12556;SDS011;6344;49.932;8.308;2023-04-08T13:51:50;9.87;;;8.97;;
12556;SDS011;6344;49.932;8.308;2023-04-08T13:54:18;8.83;;;8.13;;
12556;SDS011;6344;49.932;8.308;2023-04-08T13:56:45;8.60;;;7.90;;
12556;SDS011;6344;49.932;8.308;2023-04-08T13:59:11;7.82;;;7.22;;
12556;SDS011;6344;49.932;8.308;2023-04-08T14:01:38;9.00;;;8.20;;
12556;SDS011;6344;49.932;8.308;2023-04-08T14:04:05;9.35;;;8.38;;
12556;SDS011;6344;49.932;8.308;2023-04-08T14:06:32;7.87;;;7.33;;
12556;SDS011;6344;49.932;8.308;2023-04-08T14:09:00;8.40;;;7.67;;
12556;SDS011;6344;49.932;8.308;2023-04-08T14:11:28;7.43;;;6.73;;
12556;SDS011;6344;49.932;8.308;2023-04-08T14:13:54;7.67;;;7.07;;
12556;SDS011;6344;49.932;8.308;2023-04-08T14:16:21;8.50;;;7.77;;
12556;SDS011;6344;49.932;8.308;2023-04-08T14:18:48;9.13;;;8.43;;
12556;SDS011;6344;49.932;8.308;2023-04-08T14:21:15;9.50;;;8.70;;
12556;SDS011;6344;49.932;8.308;2023-04-08T14:23:42;9.87;;;8.97;;
12556;SDS011;6344;49.932;8.308;2023-04-08T14:26:09;7.90;;;7.30;;
12556;SDS011;6344;49.932;8.308;2023-04-08T14:28:37;8.40;;;7.80;;
12556;SDS011;6344;49.932;8.308;2023-04-08T14:31:03;7.47;;;6.87;;
12556;SDS011;6344;49.932;8.308;2023-04-08T14:33:30;8.23;;;7.47;;
12556;SDS011;6344;49.932;8.308;2023-04-08T14:35:57;7.90;;;7.20;;
12556;SDS011;6344;49.932;8.308;2023-04-08T14:38:24;8.80;;;8.10;;
12556;SDS011;6344;49.932;8.308;2023-04-08T14:40:51;7.50;;;6.90;;
12556;SDS011;6344;49.932;8.308;2023-04-08T14:43:18;8.80;;;8.10;;